Time;durP1;ratioP1;P1;durP2;ratioP2;P2;SDS_P1;SDS_P2;PMS_P1;PMS_P2;Temp;Humidity;BMP_temperature;BMP_pressure;BME280_temperature;BME280_humidity;BME280_pressure;Samples;Min_cycle;Max_cycle;Signal;HPM_P1;HPM_P2
2021/08/06 00:00:57;;;;;;;3.13;0.90;;;;;;;10.19;100.00;92430.72;2097751;28;20036;-85
2021/08/06 00:01:59;;;;;;;1.10;0.95;;;;;;;10.19;100.00;92423.44;2107233;28;20563;-85
2021/08/06 00:03:01;;;;;;;0.80;0.80;;;;;;;10.19;100.00;92426.13;2115277;28;20423;-87
2021/08/06 00:04:02;;;;;;;0.80;0.80;;;;;;;10.13;100.00;92427.81;2106866;28;20389;-89
2021/08/06 00:05:04;;;;;;;4.38;1.05;;;;;;;10.09;100.00;92425.25;2092404;28;20413;-85
2021/08/06 00:06:06;;;;;;;1.05;0.82;;;;;;;10.07;100.00;92424.94;2098881;28;20090;-86
2021/08/06 00:07:07;;;;;;;1.58;0.90;;;;;;;10.14;100.00;92415.22;2098885;28;20043;-86
2021/08/06 00:08:08;;;;;;;1.05;0.95;;;;;;;10.09;100.00;92417.25;2107054;28;20111;-85
2021/08/06 00:09:09;;;;;;;3.90;1.40;;;;;;;10.04;100.00;92420.47;2105686;28;20027;-87
2021/08/06 00:10:10;;;;;;;1.05;0.98;;;;;;;10.04;100.00;92422.38;2115625;28;20030;-87
2021/08/06 00:11:11;;;;;;;0.90;0.90;;;;;;;10.05;100.00;92411.28;2116176;27;20028;-86
2021/08/06 00:12:12;;;;;;;1.30;1.20;;;;;;;10.01;100.00;92420.59;2098839;28;20458;-85
2021/08/06 00:13:14;;;;;;;3.40;1.17;;;;;;;10.01;100.00;92416.00;2090380;28;20025;-86
2021/08/06 00:14:15;;;;;;;1.35;1.05;;;;;;;10.13;100.00;92419.06;2106810;28;20024;-87
2021/08/06 00:15:16;;;;;;;3.35;1.35;;;;;;;10.07;100.00;92410.84;2107153;28;20020;-86
2021/08/06 00:16:17;;;;;;;1.95;1.00;;;;;;;10.01;100.00;92410.66;2106980;28;20024;-86
2021/08/06 00:17:18;;;;;;;1.25;1.10;;;;;;;10.02;100.00;92406.81;2098668;28;20087;-86
2021/08/06 00:18:19;;;;;;;4.40;1.33;;;;;;;10.08;100.00;92412.34;2094659;28;20028;-86
2021/08/06 00:19:21;;;;;;;1.85;1.00;;;;;;;10.06;100.00;92414.69;2098198;28;20635;-88
2021/08/06 00:20:22;;;;;;;0.90;0.90;;;;;;;10.04;100.00;92411.69;2098675;28;20062;-87
2021/08/06 00:21:23;;;;;;;6.18;1.65;;;;;;;10.09;100.00;92413.81;2098509;28;20671;-85
2021/08/06 00:22:24;;;;;;;1.50;0.88;;;;;;;10.08;100.00;92413.09;2090468;28;20031;-86
2021/08/06 00:23:25;;;;;;;3.25;1.23;;;;;;;10.09;100.00;92409.22;2098812;28;20023;-87
2021/08/06 00:24:26;;;;;;;1.20;1.10;;;;;;;10.04;100.00;92404.44;2098299;28;20432;-86
2021/08/06 00:25:27;;;;;;;1.13;1.00;;;;;;;10.09;100.00;92406.56;2107005;28;20024;-87
2021/08/06 00:26:28;;;;;;;1.20;1.10;;;;;;;10.05;100.00;92405.94;2115409;28;20027;-87
2021/08/06 00:27:31;;;;;;;2.70;1.17;;;;;;;10.08;100.00;92399.00;2107000;28;20028;-87
2021/08/06 00:28:32;;;;;;;2.88;1.33;;;;;;;10.07;100.00;92403.59;2098764;28;20025;-87
2021/08/06 00:29:33;;;;;;;1.38;1.27;;;;;;;10.07;100.00;92398.25;2089347;28;20053;-88
2021/08/06 00:30:33;;;;;;;1.08;0.98;;;;;;;10.08;100.00;92404.31;2098443;28;20087;-87
2021/08/06 00:31:36;;;;;;;2.97;1.20;;;;;;;10.08;100.00;92399.72;2098306;28;20131;-86
2021/08/06 00:32:37;;;;;;;1.38;0.95;;;;;;;10.13;100.00;92400.38;2098797;28;20722;-86
2021/08/06 00:33:38;;;;;;;2.75;1.00;;;;;;;10.14;100.00;92396.50;2098485;28;20097;-85
2021/08/06 00:34:39;;;;;;;7.90;1.20;;;;;;;10.20;100.00;92397.47;2092905;28;20020;-86
2021/08/06 00:35:39;;;;;;;3.70;1.27;;;;;;;10.17;100.00;92390.31;2098535;28;20528;-86
2021/08/06 00:36:40;;;;;;;1.75;1.30;;;;;;;10.20;100.00;92392.13;2106804;28;20028;-86
2021/08/06 00:37:41;;;;;;;1.10;1.02;;;;;;;10.20;100.00;92392.13;2107124;28;20065;-85
2021/08/06 00:38:42;;;;;;;1.52;1.38;;;;;;;10.28;100.00;92388.84;2098249;28;20032;-86
2021/08/06 00:39:43;;;;;;;2.15;1.42;;;;;;;10.27;100.00;92397.25;2090043;28;20029;-85
2021/08/06 00:40:44;;;;;;;1.30;1.20;;;;;;;10.29;100.00;92389.59;2097261;28;20017;-85
2021/08/06 00:41:45;;;;;;;2.47;2.28;;;;;;;10.31;100.00;92390.63;2098364;28;20036;-85
2021/08/06 00:42:46;;;;;;;1.40;1.30;;;;;;;10.33;100.00;92390.97;2101586;28;20016;-86
2021/08/06 00:43:47;;;;;;;3.13;1.30;;;;;;;10.34;100.00;92389.03;2108956;28;20035;-86
2021/08/06 00:44:48;;;;;;;3.00;1.35;;;;;;;10.34;100.00;92394.38;2101015;28;20424;-84
2021/08/06 00:45:49;;;;;;;1.50;1.20;;;;;;;10.33;100.00;92396.31;2100840;28;20115;-85
2021/08/06 00:46:50;;;;;;;19.83;1.85;;;;;;;10.37;100.00;92387.44;2113270;28;20022;-87
2021/08/06 00:47:52;;;;;;;1.40;0.90;;;;;;;10.41;100.00;92385.41;2114397;27;20020;-86
2021/08/06 00:48:53;;;;;;;1.30;1.20;;;;;;;10.40;100.00;92389.22;2106330;28;20038;-84
2021/08/06 00:49:54;;;;;;;5.47;1.17;;;;;;;10.41;100.00;92382.72;2098266;28;20025;-87
2021/08/06 00:50:56;;;;;;;3.13;1.20;;;;;;;10.41;100.00;92383.47;2098336;28;20055;-86
2021/08/06 00:51:56;;;;;;;8.93;1.50;;;;;;;10.47;100.00;92389.75;2098343;28;20032;-87
2021/08/06 00:52:59;;;;;;;4.97;1.40;;;;;;;10.43;100.00;92391.03;2106060;28;20429;-87
2021/08/06 00:54:01;;;;;;;3.13;1.20;;;;;;;10.41;100.00;92390.75;2098229;28;20028;-86
2021/08/06 00:55:04;;;;;;;1.92;1.30;;;;;;;10.39;100.00;92380.47;2090505;28;20052;-85
2021/08/06 00:56:07;;;;;;;5.90;1.40;;;;;;;10.44;100.00;92385.25;2098724;28;20120;-86
2021/08/06 00:57:12;;;;;;;2.05;1.10;;;;;;;10.42;100.00;92382.28;2098220;28;20109;-85
2021/08/06 00:58:14;;;;;;;1.42;1.33;;;;;;;10.46;100.00;92376.81;2091171;28;20021;-85
2021/08/06 00:59:16;;;;;;;2.63;1.25;;;;;;;10.50;100.00;92380.88;2090126;28;20025;-85
2021/08/06 01:00:17;;;;;;;4.53;1.50;;;;;;;10.55;100.00;92379.56;2090183;28;20021;-85
2021/08/06 01:01:22;;;;;;;2.25;1.15;;;;;;;10.57;100.00;92379.88;2089895;28;20025;-84
2021/08/06 01:02:36;;;;;;;2.78;1.35;;;;;;;10.57;100.00;92375.28;2090996;28;20021;-84
2021/08/06 01:03:54;;;;;;;6.47;1.70;;;;;;;10.63;100.00;92374.75;2103221;28;20024;-86
2021/08/06 01:05:03;;;;;;;2.55;1.10;;;;;;;10.66;100.00;92382.63;2106294;28;20069;-86
2021/08/06 01:06:08;;;;;;;1.70;1.10;;;;;;;10.66;100.00;92377.28;2099373;28;20028;-86
2021/08/06 01:07:17;;;;;;;2.97;1.10;;;;;;;10.63;100.00;92375.47;2098704;28;20094;-86
2021/08/06 01:08:30;;;;;;;1.60;1.10;;;;;;;10.66;100.00;92371.94;2105208;28;20024;-85
2021/08/06 01:09:44;;;;;;;1.88;1.02;;;;;;;10.66;100.00;92382.63;2108064;28;20103;-86
2021/08/06 01:11:00;;;;;;;2.08;1.10;;;;;;;10.67;100.00;92372.66;2100061;28;20073;-85
2021/08/06 01:12:06;;;;;;;2.88;1.30;;;;;;;10.71;100.00;92376.75;2108961;27;20051;-86
2021/08/06 01:13:09;;;;;;;4.07;1.23;;;;;;;10.67;100.00;92378.78;2114828;28;20046;-86
2021/08/06 01:14:15;;;;;;;1.95;1.17;;;;;;;10.65;100.00;92375.03;2098590;28;20069;-87
2021/08/06 01:15:17;;;;;;;1.35;0.90;;;;;;;10.65;100.00;92375.78;2099407;28;20052;-84
2021/08/06 01:16:19;;;;;;;1.25;1.02;;;;;;;10.65;100.00;92380.38;2098566;28;20020;-87
2021/08/06 01:17:23;;;;;;;1.33;1.05;;;;;;;10.64;100.00;92376.97;2098625;28;20075;-87
2021/08/06 01:18:28;;;;;;;1.95;1.10;;;;;;;10.73;100.00;92376.28;2098340;28;20048;-86
2021/08/06 01:19:31;;;;;;;7.45;1.13;;;;;;;10.75;100.00;92377.34;2090434;28;20040;-85
2021/08/06 01:20:40;;;;;;;1.88;1.33;;;;;;;10.72;100.00;92375.56;2098291;28;20029;-86
2021/08/06 01:21:44;;;;;;;7.32;1.25;;;;;;;10.78;100.00;92370.38;2099103;28;20082;-88
2021/08/06 01:22:51;;;;;;;1.38;1.27;;;;;;;10.74;100.00;92367.84;2090674;28;20079;-85
2021/08/06 01:23:57;;;;;;;4.47;1.27;;;;;;;10.81;100.00;92358.84;2099523;28;20033;-85
2021/08/06 01:25:06;;;;;;;3.45;1.17;;;;;;;10.82;100.00;92366.41;2099221;28;20023;-87
2021/08/06 01:26:09;;;;;;;4.00;1.30;;;;;;;10.77;100.00;92369.66;2099182;28;20501;-87
2021/08/06 01:27:10;;;;;;;3.00;1.45;;;;;;;10.83;100.00;92359.13;2090399;28;20029;-87
2021/08/06 01:28:17;;;;;;;2.30;1.15;;;;;;;10.82;100.00;92365.66;2098157;28;20024;-87
2021/08/06 01:29:18;;;;;;;5.03;1.35;;;;;;;10.78;100.00;92371.13;2099309;28;20021;-86
2021/08/06 01:30:19;;;;;;;1.83;1.20;;;;;;;10.82;100.00;92363.00;2106419;28;20024;-87
2021/08/06 01:31:28;;;;;;;7.45;1.40;;;;;;;10.83;100.00;92370.56;2106479;28;20023;-86
2021/08/06 01:32:30;;;;;;;5.05;1.40;;;;;;;10.81;100.00;92359.56;2093717;28;20112;-86
2021/08/06 01:33:32;;;;;;;1.50;1.40;;;;;;;10.88;100.00;92355.91;2100844;28;20021;-88
2021/08/06 01:34:33;;;;;;;1.50;1.40;;;;;;;10.82;100.00;92360.31;2105671;28;20036;-87
2021/08/06 01:35:34;;;;;;;2.92;1.27;;;;;;;10.79;100.00;92356.56;2114773;28;20011;-85
2021/08/06 01:36:35;;;;;;;1.13;1.02;;;;;;;10.78;100.00;92349.75;2106235;28;20078;-87
2021/08/06 01:37:36;;;;;;;1.20;1.10;;;;;;;10.80;100.00;92350.06;2097712;28;20793;-86
2021/08/06 01:38:37;;;;;;;1.25;1.10;;;;;;;10.82;100.00;92353.03;2089780;28;20021;-86
2021/08/06 01:39:39;;;;;;;2.33;1.10;;;;;;;10.86;100.00;92355.59;2098077;28;20362;-87
2021/08/06 01:41:17;;;;;;;2.65;1.10;;;;;;;10.84;100.00;92353.38;2102288;28;20028;-86
2021/08/06 01:42:43;;;;;;;0.95;0.90;;;;;;;10.78;100.00;92349.75;2112217;27;20019;-86
2021/08/06 01:44:12;;;;;;;3.92;1.20;;;;;;;10.76;100.00;92348.72;2105886;28;20516;-86
2021/08/06 01:45:21;;;;;;;2.13;1.23;;;;;;;10.70;100.00;92350.44;2099086;28;20119;-85
2021/08/06 01:46:40;;;;;;;1.10;1.10;;;;;;;10.79;100.00;92353.16;2105218;27;20028;-87
2021/08/06 01:47:45;;;;;;;4.50;0.90;;;;;;;10.70;100.00;92351.16;2117251;27;20016;-86
2021/08/06 01:48:50;;;;;;;1.40;1.30;;;;;;;10.67;100.00;92349.38;2115349;27;20465;-87
2021/08/06 01:49:59;;;;;;;2.08;1.00;;;;;;;10.68;100.00;92344.78;2106468;28;20027;-86
2021/08/06 01:51:00;;;;;;;1.10;1.10;;;;;;;10.71;100.00;92350.00;2099006;28;20027;-87
2021/08/06 01:52:05;;;;;;;3.30;1.10;;;;;;;10.73;100.00;92352.97;2098096;28;20050;-84
2021/08/06 01:53:10;;;;;;;2.92;1.30;;;;;;;10.77;100.00;92352.88;2099139;28;20519;-86
2021/08/06 01:54:12;;;;;;;3.50;1.38;;;;;;;10.79;100.00;92342.47;2098460;28;20141;-86
2021/08/06 01:55:15;;;;;;;2.00;1.60;;;;;;;10.80;100.00;92346.66;2098030;28;20032;-87
2021/08/06 01:56:19;;;;;;;4.03;1.42;;;;;;;10.81;100.00;92348.13;2114705;28;20028;-85
2021/08/06 01:57:21;;;;;;;3.80;1.27;;;;;;;10.81;100.00;92346.22;2106422;28;20042;-84
2021/08/06 01:58:24;;;;;;;4.40;1.45;;;;;;;10.86;100.00;92344.16;2106721;27;20046;-86
2021/08/06 01:59:28;;;;;;;2.35;1.30;;;;;;;10.86;100.00;92346.84;2106490;28;20491;-85
2021/08/06 02:00:30;;;;;;;1.63;1.23;;;;;;;10.82;100.00;92342.34;2105185;28;20099;-84
2021/08/06 02:01:31;;;;;;;3.38;1.25;;;;;;;10.83;100.00;92343.84;2097715;28;20119;-84
2021/08/06 02:02:36;;;;;;;7.18;1.30;;;;;;;10.88;100.00;92339.84;2097863;28;20036;-85
2021/08/06 02:03:37;;;;;;;6.43;1.70;;;;;;;10.91;100.00;92336.31;2098319;28;20444;-86
2021/08/06 02:06:44;;;;;;;;;;;;;;;10.88;100.00;92337.19;2148833;27;20565;-86
2021/08/06 02:07:45;;;;;;;1.88;1.20;;;;;;;10.92;100.00;92342.41;2127736;27;19923;-87
2021/08/06 02:08:47;;;;;;;4.07;1.45;;;;;;;10.88;100.00;92345.19;2104861;28;20619;-86
2021/08/06 02:09:49;;;;;;;2.92;1.60;;;;;;;10.84;100.00;92340.00;2113699;27;20060;-86
2021/08/06 02:10:50;;;;;;;1.42;1.33;;;;;;;10.88;100.00;92342.53;2105122;27;20046;-86
2021/08/06 02:11:52;;;;;;;1.30;1.20;;;;;;;10.90;100.00;92342.84;2113253;28;20742;-86
2021/08/06 02:12:53;;;;;;;3.05;1.40;;;;;;;10.94;100.00;92343.47;2121214;28;20034;-88
2021/08/06 02:13:55;;;;;;;2.42;1.67;;;;;;;10.92;100.00;92335.13;2113427;28;20038;-87
2021/08/06 02:14:56;;;;;;;2.55;1.42;;;;;;;10.94;100.00;92340.06;2113472;28;20112;-87
2021/08/06 02:15:58;;;;;;;6.05;1.42;;;;;;;10.91;100.00;92340.91;2104804;28;20097;-87
2021/08/06 02:17:00;;;;;;;3.72;1.60;;;;;;;10.90;100.00;92345.53;2105263;28;20027;-88
2021/08/06 02:18:01;;;;;;;3.30;1.63;;;;;;;10.97;100.00;92342.59;2104690;28;20028;-86
2021/08/06 02:19:03;;;;;;;2.60;1.40;;;;;;;11.00;100.00;92343.66;2104939;28;20028;-86
2021/08/06 02:20:06;;;;;;;5.75;1.40;;;;;;;10.95;100.00;92346.88;2104683;28;20020;-87
2021/08/06 02:21:12;;;;;;;3.50;1.70;;;;;;;10.92;100.00;92343.16;2107297;28;20385;-88
2021/08/06 02:22:15;;;;;;;4.00;1.42;;;;;;;10.95;100.00;92341.53;2114868;27;20055;-86
2021/08/06 02:23:17;;;;;;;1.65;1.55;;;;;;;10.92;100.00;92345.81;2113221;28;20023;-87
2021/08/06 02:24:19;;;;;;;5.47;1.50;;;;;;;11.01;100.00;92342.47;2105144;28;20021;-86
2021/08/06 02:25:22;;;;;;;4.90;1.90;;;;;;;10.98;100.00;92336.06;2096603;28;20684;-86
2021/08/06 02:26:24;;;;;;;1.40;1.30;;;;;;;10.99;100.00;92348.25;2104770;28;20048;-87
2021/08/06 02:27:26;;;;;;;1.42;1.33;;;;;;;11.03;100.00;92338.19;2088282;28;20025;-87
2021/08/06 02:28:28;;;;;;;1.65;1.55;;;;;;;11.03;100.00;92334.75;2088485;28;20115;-89
2021/08/06 02:29:30;;;;;;;3.15;1.27;;;;;;;11.03;100.00;92338.19;2088277;28;20453;-86
2021/08/06 02:30:32;;;;;;;2.90;1.35;;;;;;;11.01;100.00;92331.75;2096702;28;20497;-88
2021/08/06 02:31:35;;;;;;;4.18;1.52;;;;;;;11.05;100.00;92333.13;2096475;28;20017;-89
2021/08/06 02:32:36;;;;;;;1.48;1.38;;;;;;;11.07;100.00;92330.78;2096464;28;20031;-85
2021/08/06 02:33:38;;;;;;;6.15;1.50;;;;;;;11.07;100.00;92330.03;2096542;28;20024;-87
2021/08/06 02:34:39;;;;;;;3.50;1.50;;;;;;;11.06;100.00;92334.63;2090970;28;20063;-85
2021/08/06 02:35:40;;;;;;;4.97;1.48;;;;;;;11.08;100.00;92326.91;2104685;28;20581;-87
2021/08/06 02:36:43;;;;;;;2.92;1.42;;;;;;;11.09;100.00;92327.66;2096273;28;20067;-87
2021/08/06 02:37:46;;;;;;;2.38;1.50;;;;;;;11.12;100.00;92320.69;2097893;28;20576;-87
2021/08/06 02:38:47;;;;;;;2.92;1.50;;;;;;;11.15;100.00;92314.44;2104716;28;20035;-88
2021/08/06 02:39:47;;;;;;;1.75;1.45;;;;;;;11.16;100.00;92313.28;2104722;28;20809;-87
2021/08/06 02:40:51;;;;;;;5.72;1.73;;;;;;;11.16;100.00;92313.28;2104587;28;20033;-88
2021/08/06 02:41:54;;;;;;;1.60;1.50;;;;;;;11.17;100.00;92317.44;2113132;28;20012;-88
2021/08/06 02:42:55;;;;;;;1.50;1.40;;;;;;;11.13;100.00;92309.56;2096698;28;20385;-87
2021/08/06 02:43:56;;;;;;;2.42;1.17;;;;;;;11.14;100.00;92321.00;2099630;28;20092;-87
2021/08/06 02:44:57;;;;;;;1.50;1.40;;;;;;;11.13;100.00;92312.22;2112946;28;20495;-87
2021/08/06 02:45:58;;;;;;;3.67;1.33;;;;;;;11.15;100.00;92309.09;2104364;28;20093;-86
2021/08/06 02:46:59;;;;;;;9.35;1.70;;;;;;;11.14;100.00;92302.25;2104760;28;20036;-89
2021/08/06 02:48:00;;;;;;;4.60;1.52;;;;;;;11.15;100.00;92303.75;2113121;27;20107;-87
2021/08/06 02:49:01;;;;;;;7.78;1.40;;;;;;;11.16;100.00;92306.00;2112866;28;20506;-87
2021/08/06 02:50:03;;;;;;;2.05;1.50;;;;;;;11.00;100.00;92298.94;2099339;28;20021;-86
2021/08/06 02:51:04;;;;;;;2.38;1.42;;;;;;;11.01;100.00;92302.34;2106380;27;20069;-86
2021/08/06 02:52:07;;;;;;;4.10;1.42;;;;;;;10.94;100.00;92302.63;2112894;28;20496;-86
2021/08/06 02:53:08;;;;;;;6.10;1.45;;;;;;;10.97;100.00;92299.06;2104888;28;20513;-87
2021/08/06 02:54:09;;;;;;;8.68;1.63;;;;;;;10.98;100.00;92298.63;2113217;27;20111;-86
2021/08/06 02:55:10;;;;;;;3.17;1.52;;;;;;;10.94;100.00;92294.59;2113042;28;20480;-88
2021/08/06 02:56:11;;;;;;;1.67;1.30;;;;;;;10.92;100.00;92292.34;2112806;27;20019;-87
2021/08/06 02:57:12;;;;;;;2.80;1.45;;;;;;;10.93;100.00;92296.53;2121106;28;20043;-87
2021/08/06 02:58:13;;;;;;;3.10;1.35;;;;;;;10.88;100.00;92302.44;2112736;28;20035;-87
2021/08/06 02:59:14;;;;;;;2.28;1.25;;;;;;;10.82;100.00;92301.50;2096425;28;20479;-87
2021/08/06 03:00:15;;;;;;;4.80;1.33;;;;;;;10.85;100.00;92303.31;2100170;28;20094;-86
2021/08/06 03:01:16;;;;;;;2.47;1.55;;;;;;;10.75;100.00;92309.78;2096131;28;20064;-87
2021/08/06 03:02:17;;;;;;;2.42;1.70;;;;;;;10.72;100.00;92295.38;2104858;27;20020;-88
2021/08/06 03:03:18;;;;;;;5.22;1.30;;;;;;;10.71;100.00;92309.91;2112744;28;20100;-87
2021/08/06 03:04:19;;;;;;;1.70;1.45;;;;;;;10.76;100.00;92305.94;2112491;28;20085;-86
2021/08/06 03:05:20;;;;;;;4.85;1.45;;;;;;;10.77;100.00;92304.75;2101001;28;20405;-87
2021/08/06 03:06:21;;;;;;;2.08;1.65;;;;;;;10.72;100.00;92306.06;2103161;28;20040;-86
2021/08/06 03:07:22;;;;;;;2.08;1.63;;;;;;;10.66;100.00;92301.69;2104486;28;20459;-86
2021/08/06 03:08:23;;;;;;;6.57;1.48;;;;;;;10.66;100.00;92309.72;2104218;28;20055;-86
2021/08/06 03:09:24;;;;;;;2.05;1.52;;;;;;;10.63;100.00;92308.69;2112993;28;20081;-87
2021/08/06 03:10:25;;;;;;;1.98;1.52;;;;;;;10.65;100.00;92302.88;2112797;28;20020;-87
2021/08/06 03:11:26;;;;;;;4.22;1.30;;;;;;;10.64;100.00;92298.72;2105776;28;20707;-85
2021/08/06 03:12:27;;;;;;;2.60;1.30;;;;;;;10.62;100.00;92293.06;2098232;28;20048;-85
2021/08/06 03:13:28;;;;;;;4.22;1.50;;;;;;;10.59;100.00;92300.78;2104421;28;20081;-86
2021/08/06 03:14:29;;;;;;;2.08;1.55;;;;;;;10.62;100.00;92306.41;2104209;28;20485;-86
2021/08/06 03:15:30;;;;;;;1.35;1.25;;;;;;;10.62;100.00;92293.78;2098131;28;20020;-85
2021/08/06 03:16:32;;;;;;;5.70;1.48;;;;;;;10.61;100.00;92300.31;2112845;28;20436;-86
2021/08/06 03:17:32;;;;;;;4.35;1.35;;;;;;;10.65;100.00;92302.88;2110080;28;20034;-85
2021/08/06 03:18:33;;;;;;;1.55;1.45;;;;;;;10.61;100.00;92297.66;2092811;28;20020;-86
2021/08/06 03:19:34;;;;;;;1.60;1.50;;;;;;;10.66;100.00;92301.69;2099079;28;20024;-86
2021/08/06 03:20:35;;;;;;;6.47;1.50;;;;;;;10.69;100.00;92298.16;2104018;28;20020;-87
2021/08/06 03:21:36;;;;;;;1.42;1.33;;;;;;;10.69;100.00;92303.50;2106962;28;20020;-87
2021/08/06 03:22:38;;;;;;;2.10;1.50;;;;;;;10.66;100.00;92296.34;2106931;28;20606;-86
2021/08/06 03:23:39;;;;;;;1.60;1.42;;;;;;;10.67;100.00;92303.19;2106306;28;20103;-86
2021/08/06 03:24:40;;;;;;;1.52;1.40;;;;;;;10.68;100.00;92299.34;2099638;28;20106;-85
2021/08/06 03:25:41;;;;;;;3.67;1.65;;;;;;;10.75;100.00;92307.84;2106947;28;20051;-85
2021/08/06 03:26:42;;;;;;;1.55;1.38;;;;;;;10.76;100.00;92297.91;2107100;28;20052;-85
2021/08/06 03:27:44;;;;;;;4.45;1.30;;;;;;;10.76;100.00;92297.91;2098780;28;20032;-86
2021/08/06 03:28:45;;;;;;;11.30;1.85;;;;;;;10.83;100.00;92292.31;2102763;28;20111;-90
2021/08/06 03:29:46;;;;;;;4.28;1.50;;;;;;;10.78;100.00;92293.63;2107231;28;20027;-87
2021/08/06 03:30:48;;;;;;;2.80;1.50;;;;;;;10.78;100.00;92298.22;2106813;28;20511;-88
2021/08/06 03:31:49;;;;;;;1.70;1.60;;;;;;;10.81;100.00;92298.09;2103016;28;20495;-87
2021/08/06 03:32:50;;;;;;;3.67;1.42;;;;;;;10.83;100.00;92301.06;2107286;28;20032;-89
2021/08/06 03:33:51;;;;;;;7.05;1.77;;;;;;;10.86;100.00;92304.81;2107152;28;20016;-89
2021/08/06 03:34:52;;;;;;;2.70;1.52;;;;;;;10.84;100.00;92307.16;2102348;28;20043;-88
2021/08/06 03:35:52;;;;;;;1.60;1.50;;;;;;;10.86;100.00;92298.72;2098509;28;20029;-90
2021/08/06 03:36:53;;;;;;;1.50;1.40;;;;;;;10.87;100.00;92305.53;2098391;28;20017;-86
2021/08/06 03:37:54;;;;;;;3.70;1.50;;;;;;;10.89;100.00;92303.94;2109645;27;20469;-86
2021/08/06 03:38:55;;;;;;;1.77;1.48;;;;;;;10.86;100.00;92310.16;2115390;28;20019;-88
2021/08/06 03:39:56;;;;;;;1.40;1.30;;;;;;;10.92;100.00;92308.38;2115609;27;20023;-86
2021/08/06 03:40:57;;;;;;;2.63;1.58;;;;;;;10.89;100.00;92314.63;2133160;27;20029;-89
2021/08/06 03:41:58;;;;;;;5.38;1.50;;;;;;;10.92;100.00;92308.38;2122684;27;20515;-87
2021/08/06 03:42:59;;;;;;;4.20;1.42;;;;;;;10.81;100.00;92314.13;2099898;28;20231;-88
2021/08/06 03:44:00;;;;;;;1.85;1.55;;;;;;;10.81;100.00;92310.72;2098301;28;20478;-87
2021/08/06 03:45:01;;;;;;;3.20;1.33;;;;;;;10.86;100.00;92312.81;2082161;28;20021;-88
2021/08/06 03:46:02;;;;;;;4.40;1.60;;;;;;;10.88;100.00;92320.41;2098609;28;20024;-88
2021/08/06 03:47:03;;;;;;;3.20;1.50;;;;;;;10.90;100.00;92323.41;2108838;28;20083;-88
2021/08/06 03:48:05;;;;;;;4.88;1.58;;;;;;;10.86;100.00;92314.75;2113154;28;20061;-89
2021/08/06 03:49:06;;;;;;;1.92;1.50;;;;;;;10.91;100.00;92317.59;2107003;28;20051;-87
2021/08/06 03:50:08;;;;;;;1.20;1.20;;;;;;;10.88;100.00;92323.06;2106724;28;20020;-86
2021/08/06 03:51:09;;;;;;;4.30;1.40;;;;;;;10.92;100.00;92323.69;2115263;28;20024;-86
2021/08/06 03:52:10;;;;;;;2.40;1.90;;;;;;;10.92;100.00;92321.00;2106829;28;20105;-89
2021/08/06 03:53:11;;;;;;;8.77;1.50;;;;;;;10.94;100.00;92324.75;2098422;28;20020;-89
2021/08/06 03:54:12;;;;;;;2.38;1.80;;;;;;;10.96;100.00;92326.97;2106891;28;20032;-85
2021/08/06 03:55:12;;;;;;;2.42;1.65;;;;;;;11.00;100.00;92340.97;2106875;28;20020;-87
2021/08/06 03:56:13;;;;;;;1.60;1.50;;;;;;;10.98;100.00;92335.34;2099522;28;20017;-89
2021/08/06 03:57:14;;;;;;;1.70;1.60;;;;;;;11.01;100.00;92329.09;2098434;28;20025;-90
2021/08/06 03:58:15;;;;;;;1.52;1.42;;;;;;;10.97;100.00;92339.91;2098490;28;20055;-87
2021/08/06 03:59:16;;;;;;;3.88;1.77;;;;;;;10.98;100.00;92341.41;2110344;28;20088;-86
2021/08/06 04:00:18;;;;;;;4.55;1.73;;;;;;;11.05;100.00;92337.72;2098552;28;20032;-86
2021/08/06 04:01:19;;;;;;;3.63;1.88;;;;;;;11.04;100.00;92338.91;2106743;28;20023;-86
2021/08/06 04:02:20;;;;;;;2.78;1.88;;;;;;;11.08;100.00;92345.63;2098224;28;20035;-88
2021/08/06 04:03:21;;;;;;;1.88;1.73;;;;;;;11.07;100.00;92340.72;2090020;28;20016;-87
2021/08/06 04:04:22;;;;;;;4.40;2.00;;;;;;;11.03;100.00;92343.53;2090076;28;20497;-90
2021/08/06 04:05:23;;;;;;;7.43;1.90;;;;;;;11.06;100.00;92334.63;2090607;28;20037;-87
2021/08/06 04:06:24;;;;;;;1.70;1.60;;;;;;;11.09;100.00;92333.00;2106685;28;20051;-87
2021/08/06 04:07:25;;;;;;;1.70;1.60;;;;;;;11.12;100.00;92339.41;2106761;28;20024;-88
2021/08/06 04:08:25;;;;;;;6.30;1.90;;;;;;;11.14;100.00;92345.81;2113538;28;20092;-89
2021/08/06 04:09:26;;;;;;;2.42;1.63;;;;;;;11.18;100.00;92340.31;2090070;28;20020;-87
2021/08/06 04:10:27;;;;;;;1.80;1.70;;;;;;;11.18;100.00;92335.72;2098085;28;20025;-88
2021/08/06 04:11:28;;;;;;;2.63;1.65;;;;;;;11.23;100.00;92337.09;2098384;28;20547;-85
2021/08/06 04:12:29;;;;;;;2.22;1.67;;;;;;;11.23;100.00;92335.16;2081691;28;20029;-87
2021/08/06 04:13:30;;;;;;;2.65;1.52;;;;;;;11.21;100.00;92340.19;2089954;28;20024;-87
2021/08/06 04:14:31;;;;;;;2.40;1.60;;;;;;;11.18;100.00;92338.41;2098380;28;20028;-86
2021/08/06 04:15:32;;;;;;;5.53;2.17;;;;;;;11.18;100.00;92346.41;2090107;28;20421;-86
2021/08/06 04:16:33;;;;;;;2.78;2.08;;;;;;;11.19;100.00;92341.81;2098482;28;20108;-88
2021/08/06 04:17:34;;;;;;;2.33;1.95;;;;;;;11.18;100.00;92334.97;2098400;28;20020;-87
2021/08/06 04:18:35;;;;;;;2.10;1.85;;;;;;;11.18;100.00;92335.72;2098252;28;20020;-88
2021/08/06 04:19:36;;;;;;;1.75;1.65;;;;;;;11.18;100.00;92337.66;2098477;28;20040;-88
2021/08/06 04:20:37;;;;;;;3.28;2.00;;;;;;;11.19;100.00;92341.81;2106706;28;20447;-90
2021/08/06 04:21:38;;;;;;;1.80;1.60;;;;;;;11.21;100.00;92334.84;2098299;28;20025;-87
2021/08/06 04:22:40;;;;;;;6.88;1.80;;;;;;;11.22;100.00;92327.56;2098381;28;20082;-89
2021/08/06 04:23:41;;;;;;;2.95;1.80;;;;;;;11.23;100.00;92331.72;2098432;28;20027;-87
2021/08/06 04:24:42;;;;;;;2.90;1.90;;;;;;;11.21;100.00;92329.50;2106839;28;20016;-87
2021/08/06 04:25:43;;;;;;;3.08;1.70;;;;;;;11.26;100.00;92334.28;2106660;28;20519;-88
2021/08/06 04:26:44;;;;;;;2.10;1.77;;;;;;;11.28;100.00;92331.16;2106769;28;20026;-89
2021/08/06 04:27:45;;;;;;;4.60;1.80;;;;;;;11.28;100.00;92325.81;2115135;28;20392;-88
2021/08/06 04:28:46;;;;;;;1.80;1.70;;;;;;;11.26;100.00;92333.53;2098327;28;20030;-89
2021/08/06 04:29:47;;;;;;;1.90;1.80;;;;;;;11.30;100.00;92334.16;2089088;28;20135;-89
2021/08/06 04:30:48;;;;;;;4.30;1.90;;;;;;;11.29;100.00;92330.75;2101384;28;20078;-87
2021/08/06 04:31:49;;;;;;;3.92;1.60;;;;;;;11.25;100.00;92334.72;2098205;28;20083;-89
2021/08/06 04:32:50;;;;;;;1.83;1.63;;;;;;;11.29;100.00;92332.66;2097753;28;20029;-88
2021/08/06 04:33:51;;;;;;;4.70;1.92;;;;;;;11.31;100.00;92323.00;2098271;28;20032;-85
2021/08/06 04:34:52;;;;;;;1.60;1.50;;;;;;;11.34;100.00;92327.50;2093550;28;20525;-89
2021/08/06 04:35:53;;;;;;;1.90;1.73;;;;;;;11.32;100.00;92331.78;2090022;28;20032;-89
2021/08/06 04:36:54;;;;;;;6.43;1.75;;;;;;;11.31;100.00;92323.00;2094148;28;20021;-86
2021/08/06 04:37:56;;;;;;;3.33;1.92;;;;;;;11.38;100.00;92322.00;2089833;28;20024;-89
2021/08/06 04:38:57;;;;;;;4.75;1.88;;;;;;;11.33;100.00;92319.91;2098493;28;20052;-85
2021/08/06 04:39:58;;;;;;;1.80;1.70;;;;;;;11.38;100.00;92324.69;2098416;28;20028;-86
2021/08/06 04:40:59;;;;;;;2.28;1.50;;;;;;;11.44;100.00;92325.59;2106660;28;20020;-87
2021/08/06 04:42:00;;;;;;;4.70;2.05;;;;;;;11.45;100.00;92323.66;2105257;28;20020;-88
2021/08/06 04:43:01;;;;;;;3.67;1.98;;;;;;;11.41;100.00;92326.47;2099196;28;20027;-86
2021/08/06 04:44:02;;;;;;;2.08;1.63;;;;;;;11.43;100.00;92326.78;2105371;28;20388;-85
2021/08/06 04:45:03;;;;;;;2.40;2.13;;;;;;;11.45;100.00;92327.06;2098252;28;20071;-87
2021/08/06 04:46:04;;;;;;;2.15;1.95;;;;;;;11.46;100.00;92327.84;2099031;28;20021;-87
2021/08/06 04:47:06;;;;;;;2.67;1.90;;;;;;;11.44;100.00;92330.19;2106195;28;20128;-86
2021/08/06 04:48:07;;;;;;;3.10;1.85;;;;;;;11.46;100.00;92333.94;2106151;28;20119;-87
2021/08/06 04:49:08;;;;;;;3.85;2.00;;;;;;;11.46;100.00;92331.25;2098091;28;20113;-89
2021/08/06 04:50:09;;;;;;;2.08;1.83;;;;;;;11.45;100.00;92324.41;2106454;28;20035;-85
2021/08/06 04:51:10;;;;;;;6.30;2.03;;;;;;;11.45;100.00;92334.34;2103984;28;20028;-87
2021/08/06 04:52:11;;;;;;;1.90;1.70;;;;;;;11.43;100.00;92339.41;2096671;28;20025;-87